Time;durP1;ratioP1;P1;durP2;ratioP2;P2;SDS_P1;SDS_P2;PMS_P1;PMS_P2;Temp;Humidity;BMP_temperature;BMP_pressure;BME280_temperature;BME280_humidity;BME280_pressure;Samples;Min_cycle;Max_cycle;Signal;HPM_P1;HPM_P2
2023/08/09 00:00:48;;;;;;;2.40;2.30;;;;;;;13.28;100.00;101057.34;5040458;28;20139;-69
2023/08/09 00:03:14;;;;;;;2.80;2.20;;;;;;;13.25;100.00;101057.53;5046386;28;20483;-69
2023/08/09 00:05:40;;;;;;;2.53;2.33;;;;;;;13.27;100.00;101062.78;5028831;28;20192;-69
2023/08/09 00:08:05;;;;;;;3.45;2.42;;;;;;;13.25;100.00;101065.56;5028548;28;20479;-69
2023/08/09 00:10:33;;;;;;;3.30;2.28;;;;;;;13.21;100.00;101067.50;5042108;28;20283;-67
2023/08/09 00:12:58;;;;;;;2.40;2.20;;;;;;;13.27;100.00;101074.31;5058557;28;20020;-67
2023/08/09 00:15:24;;;;;;;4.03;2.35;;;;;;;13.21;100.00;101064.84;5032625;28;20433;-68
2023/08/09 00:17:49;;;;;;;2.80;2.40;;;;;;;13.25;100.00;101060.22;5053410;28;20525;-68
2023/08/09 00:20:14;;;;;;;2.67;2.47;;;;;;;13.15;100.00;101069.66;5054880;28;20487;-68
2023/08/09 00:22:41;;;;;;;3.58;3.13;;;;;;;13.27;100.00;101062.78;5039254;28;20063;-68
2023/08/09 00:25:09;;;;;;;3.30;2.83;;;;;;;13.16;100.00;101071.38;5043513;28;20020;-69
2023/08/09 00:27:36;;;;;;;3.80;3.33;;;;;;;13.24;100.00;101073.63;5043014;28;20283;-68
2023/08/09 00:30:02;;;;;;;4.20;3.80;;;;;;;13.10;100.00;101066.41;5040915;28;20470;-68
2023/08/09 00:32:27;;;;;;;3.92;3.53;;;;;;;13.16;100.00;101074.03;5040831;28;20040;-69
2023/08/09 00:34:53;;;;;;;3.63;3.33;;;;;;;13.13;100.00;101076.91;5033188;28;20122;-68
2023/08/09 00:37:19;;;;;;;4.00;3.58;;;;;;;13.10;100.00;101074.41;5031116;28;20033;-68
2023/08/09 00:39:45;;;;;;;4.85;3.50;;;;;;;13.04;100.00;101078.31;5023283;28;20502;-68
2023/08/09 00:42:12;;;;;;;4.07;3.78;;;;;;;13.18;100.00;101067.69;5026379;28;20033;-68
2023/08/09 00:44:38;;;;;;;4.22;3.53;;;;;;;13.13;100.00;101068.91;5022412;28;20117;-68
2023/08/09 00:47:06;;;;;;;3.35;3.05;;;;;;;13.06;100.00;101073.72;5022754;28;20527;-68
2023/08/09 00:49:31;;;;;;;4.07;3.30;;;;;;;13.09;100.00;101062.00;5029031;28;20051;-69
2023/08/09 00:51:57;;;;;;;3.80;3.50;;;;;;;13.10;100.00;101077.09;5029625;28;20490;-69
2023/08/09 00:54:22;;;;;;;3.25;2.97;;;;;;;13.04;100.00;101078.31;5022424;28;20037;-68
2023/08/09 00:56:48;;;;;;;5.03;3.47;;;;;;;13.00;100.00;101071.44;5022561;28;20026;-68
2023/08/09 00:59:13;;;;;;;4.35;3.95;;;;;;;13.00;100.00;101074.09;5031329;28;20550;-68
2023/08/09 01:01:39;;;;;;;3.65;3.35;;;;;;;13.04;100.00;101082.78;5029901;28;20020;-68
2023/08/09 01:04:08;;;;;;;5.10;4.10;;;;;;;13.01;100.00;101083.81;5049871;28;20051;-68
2023/08/09 01:06:51;;;;;;;5.28;3.67;;;;;;;12.96;100.00;101080.56;5040730;28;20272;-67
2023/08/09 01:09:29;;;;;;;4.60;4.20;;;;;;;12.90;100.00;101097.78;5050771;28;20056;-67
2023/08/09 01:12:02;;;;;;;4.30;3.90;;;;;;;12.98;100.00;101091.16;5036450;28;20257;-68
2023/08/09 01:14:29;;;;;;;4.57;4.18;;;;;;;13.00;100.00;101090.13;5035926;28;20017;-67
2023/08/09 01:16:56;;;;;;;4.53;4.13;;;;;;;13.03;100.00;101087.25;5036289;28;20306;-67
2023/08/09 01:19:51;;;;;;;5.55;4.13;;;;;;;13.08;100.00;101089.66;5038757;28;20037;-67
2023/08/09 01:22:26;;;;;;;5.32;4.30;;;;;;;13.12;100.00;101085.88;5049076;28;20040;-68
2023/08/09 01:24:52;;;;;;;4.60;4.20;;;;;;;13.14;100.00;101089.31;5048210;28;20103;-68
2023/08/09 01:27:18;;;;;;;7.82;4.10;;;;;;;13.12;100.00;101091.22;5047672;28;20441;-68
2023/08/09 01:29:44;;;;;;;6.25;5.10;;;;;;;13.12;100.00;101080.53;5047208;28;20411;-68
2023/08/09 01:32:11;;;;;;;5.85;5.10;;;;;;;13.15;100.00;101080.34;5043608;28;20036;-67
2023/08/09 01:34:37;;;;;;;6.90;4.60;;;;;;;13.16;100.00;101087.41;5043475;28;20025;-68
2023/08/09 01:37:13;;;;;;;5.30;4.57;;;;;;;13.09;100.00;101083.38;5030587;28;20037;-68
2023/08/09 01:39:41;;;;;;;4.50;4.10;;;;;;;13.09;100.00;101088.72;5032331;28;20029;-69
2023/08/09 01:42:07;;;;;;;5.35;4.50;;;;;;;13.08;100.00;101087.84;5037741;28;20028;-68
2023/08/09 01:44:35;;;;;;;4.93;4.43;;;;;;;13.02;100.00;101090.03;5053144;28;20054;-68
2023/08/09 01:47:02;;;;;;;5.13;4.50;;;;;;;13.01;100.00;101094.50;5045831;28;20029;-69
2023/08/09 01:49:27;;;;;;;6.72;5.07;;;;;;;13.00;100.00;101089.22;5036492;28;20045;-68
2023/08/09 01:51:53;;;;;;;6.03;5.43;;;;;;;12.97;100.00;101095.63;5061461;28;20021;-69
2023/08/09 01:54:19;;;;;;;5.25;4.75;;;;;;;12.98;100.00;101093.81;5044345;28;20056;-69
2023/08/09 01:56:45;;;;;;;5.57;5.07;;;;;;;12.96;100.00;101092.09;5038041;28;20028;-68
2023/08/09 01:59:10;;;;;;;5.95;5.05;;;;;;;12.94;100.00;101104.66;5043924;28;20132;-69
2023/08/09 02:01:36;;;;;;;6.00;5.22;;;;;;;12.88;100.00;101104.19;5039832;28;20104;-68
2023/08/09 02:04:05;;;;;;;5.75;5.25;;;;;;;12.88;100.00;101099.69;5043851;28;20059;-69
2023/08/09 02:06:34;;;;;;;5.30;4.80;;;;;;;12.84;100.00;101102.63;5049421;28;20066;-68
2023/08/09 02:09:00;;;;;;;5.53;5.03;;;;;;;12.75;100.00;101105.78;5056218;28;20051;-69
2023/08/09 02:11:26;;;;;;;5.10;4.60;;;;;;;12.69;100.00;101105.19;5029429;28;20068;-69
2023/08/09 02:13:51;;;;;;;5.65;4.85;;;;;;;12.64;100.00;101109.06;5048042;28;20451;-69
2023/08/09 02:16:18;;;;;;;5.28;4.78;;;;;;;12.54;100.00;101115.84;5040134;28;20024;-69
2023/08/09 02:18:43;;;;;;;6.20;5.38;;;;;;;12.48;100.00;101114.38;5041870;28;20111;-69
2023/08/09 02:21:10;;;;;;;7.45;5.40;;;;;;;12.43;100.00;101119.97;5050897;28;20038;-69
2023/08/09 02:23:37;;;;;;;5.97;5.32;;;;;;;12.30;100.00;101100.22;5047529;28;20032;-69
2023/08/09 02:26:03;;;;;;;8.55;5.65;;;;;;;12.32;100.00;101117.00;5030323;28;20468;-70
2023/08/09 02:28:28;;;;;;;5.15;4.70;;;;;;;12.22;100.00;101115.78;5040782;28;20033;-69
2023/08/09 02:30:53;;;;;;;5.57;5.03;;;;;;;12.17;100.00;101117.84;5045208;28;20211;-69
2023/08/09 02:33:19;;;;;;;5.97;5.40;;;;;;;12.17;100.00;101120.53;5037536;28;20042;-70
2023/08/09 02:35:56;;;;;;;6.35;5.32;;;;;;;12.11;100.00;101124.34;5039324;28;20056;-69
2023/08/09 02:38:23;;;;;;;5.53;4.95;;;;;;;12.07;100.00;101124.59;5046998;28;20040;-69
2023/08/09 02:40:49;;;;;;;10.95;4.88;;;;;;;11.99;100.00;101127.66;5049892;28;20117;-69
2023/08/09 02:43:18;;;;;;;4.90;4.50;;;;;;;11.92;100.00;101132.47;5038559;28;20065;-69
2023/08/09 02:45:45;;;;;;;31.42;6.40;;;;;;;11.88;100.00;101133.56;5040211;28;20110;-69
2023/08/09 02:48:11;;;;;;;9.57;5.55;;;;;;;11.85;100.00;101128.38;5035864;28;20024;-69
2023/08/09 02:50:37;;;;;;;6.93;4.55;;;;;;;11.90;100.00;101136.16;5046629;28;20041;-69
2023/08/09 02:53:10;;;;;;;5.95;5.22;;;;;;;11.87;100.00;101129.19;5054913;28;20036;-69
2023/08/09 02:55:36;;;;;;;5.90;5.30;;;;;;;11.87;100.00;101138.97;5029305;28;20080;-70
2023/08/09 02:58:03;;;;;;;5.70;5.18;;;;;;;11.85;100.00;101143.53;5040932;28;20036;-69
2023/08/09 03:00:32;;;;;;;6.22;5.22;;;;;;;11.80;100.00;101146.41;5032893;28;20040;-70
2023/08/09 03:02:58;;;;;;;8.10;5.60;;;;;;;11.83;100.00;101156.06;5046624;28;20023;-70
2023/08/09 03:05:24;;;;;;;5.78;5.18;;;;;;;11.82;100.00;101149.84;5041767;28;20025;-70
2023/08/09 03:07:50;;;;;;;6.35;5.15;;;;;;;11.74;100.00;101152.03;5038262;28;20029;-69
2023/08/09 03:10:15;;;;;;;5.20;4.53;;;;;;;11.74;100.00;101154.69;5041476;28;20478;-70
2023/08/09 03:12:41;;;;;;;5.55;5.05;;;;;;;11.68;100.00;101144.34;5043927;28;20033;-70
2023/08/09 03:15:07;;;;;;;6.22;4.80;;;;;;;11.73;100.00;101156.50;5032727;28;20032;-70
2023/08/09 03:17:32;;;;;;;5.65;5.00;;;;;;;11.67;100.00;101164.84;5024560;28;20030;-69
2023/08/09 03:19:58;;;;;;;5.72;4.60;;;;;;;11.66;100.00;101159.56;5023972;28;20243;-69
2023/08/09 03:22:23;;;;;;;8.18;4.70;;;;;;;11.60;100.00;101160.75;5029697;28;20024;-69
2023/08/09 03:24:49;;;;;;;6.07;5.25;;;;;;;11.58;100.00;101167.06;5025114;28;20104;-69
2023/08/09 03:27:15;;;;;;;6.20;5.15;;;;;;;11.58;100.00;101159.97;5034438;28;20491;-69
2023/08/09 03:29:41;;;;;;;6.88;5.80;;;;;;;11.52;100.00;101157.59;5051126;28;20091;-69
2023/08/09 03:32:06;;;;;;;5.82;5.18;;;;;;;11.52;100.00;101164.72;5034559;28;20022;-69
2023/08/09 03:34:32;;;;;;;7.70;5.20;;;;;;;11.46;100.00;101163.25;5052783;28;20025;-70
2023/08/09 03:36:57;;;;;;;5.88;5.30;;;;;;;11.45;100.00;101166.81;5029942;28;20032;-68
2023/08/09 03:39:23;;;;;;;6.15;5.50;;;;;;;11.44;100.00;101173.97;5051055;28;20356;-69
2023/08/09 03:41:49;;;;;;;6.07;5.47;;;;;;;11.46;100.00;101172.09;5049493;28;20552;-69
2023/08/09 03:44:14;;;;;;;5.75;5.25;;;;;;;11.44;100.00;101179.28;5045510;28;20021;-69
2023/08/09 03:46:40;;;;;;;6.20;5.60;;;;;;;11.42;100.00;101177.66;5047641;28;20048;-69
2023/08/09 03:49:06;;;;;;;6.20;5.60;;;;;;;11.40;100.00;101191.03;5043626;28;20511;-69
2023/08/09 03:51:31;;;;;;;5.93;5.43;;;;;;;11.40;100.00;101196.38;5047495;28;20090;-68
2023/08/09 03:53:56;;;;;;;6.40;5.80;;;;;;;11.38;100.00;101194.72;5035052;28;20441;-69
2023/08/09 03:56:22;;;;;;;7.95;6.40;;;;;;;11.37;100.00;101192.97;5032400;28;20098;-69
2023/08/09 03:58:47;;;;;;;6.57;5.75;;;;;;;11.36;100.00;101200.13;5045804;28;20483;-69
2023/08/09 04:01:13;;;;;;;6.65;6.05;;;;;;;11.37;100.00;101201.88;5044068;28;20025;-68
2023/08/09 04:03:38;;;;;;;6.45;5.85;;;;;;;11.29;100.00;101208.50;5033142;28;20014;-69
2023/08/09 04:06:05;;;;;;;5.90;5.22;;;;;;;11.25;100.00;101212.25;5044259;28;20115;-69
2023/08/09 04:08:32;;;;;;;6.60;6.00;;;;;;;11.23;100.00;101209.66;5064337;28;20034;-69
2023/08/09 04:10:59;;;;;;;7.53;6.05;;;;;;;11.24;100.00;101208.69;5056610;28;20025;-69
2023/08/09 04:13:25;;;;;;;7.10;6.10;;;;;;;11.21;100.00;101212.41;5033464;28;20361;-70
2023/08/09 04:15:50;;;;;;;6.75;6.15;;;;;;;11.22;100.00;101211.44;5049470;28;20036;-70
2023/08/09 04:18:16;;;;;;;7.15;6.35;;;;;;;11.19;100.00;101208.06;5032372;28;20519;-70
2023/08/09 04:20:42;;;;;;;7.95;6.97;;;;;;;11.26;100.00;101225.50;5054205;28;20031;-69
2023/08/09 04:23:08;;;;;;;7.53;6.75;;;;;;;11.22;100.00;101223.91;5038840;28;20484;-70
2023/08/09 04:25:33;;;;;;;10.25;7.07;;;;;;;11.22;100.00;101226.56;5037381;28;20071;-70
2023/08/09 04:27:59;;;;;;;8.18;7.38;;;;;;;11.26;100.00;101224.63;5043999;28;20372;-70
2023/08/09 04:30:25;;;;;;;8.77;7.88;;;;;;;11.26;100.00;101228.16;5035521;28;20024;-71
2023/08/09 04:32:52;;;;;;;7.68;6.88;;;;;;;11.26;100.00;101222.81;5032956;28;20033;-70
2023/08/09 04:35:18;;;;;;;8.48;7.68;;;;;;;11.34;100.00;101217.13;5035881;28;20286;-71
2023/08/09 04:37:43;;;;;;;9.48;8.35;;;;;;;11.34;100.00;101220.66;5031811;28;20621;-70
2023/08/09 04:40:10;;;;;;;9.35;8.35;;;;;;;11.38;100.00;101224.91;5028893;28;20036;-70
2023/08/09 04:42:43;;;;;;;11.73;8.52;;;;;;;11.32;100.00;101216.34;5035239;28;20107;-72
2023/08/09 04:45:10;;;;;;;11.98;8.15;;;;;;;11.40;100.00;101225.69;5029799;28;20033;-70
2023/08/09 04:47:35;;;;;;;10.48;8.77;;;;;;;11.44;100.00;101229.94;5032964;28;20100;-70
2023/08/09 04:50:07;;;;;;;10.18;9.00;;;;;;;11.46;100.00;101232.53;5022144;28;20115;-70
2023/08/09 04:52:37;;;;;;;11.00;9.63;;;;;;;11.44;100.00;101237.94;5021776;28;20053;-70
2023/08/09 04:55:03;;;;;;;12.77;10.45;;;;;;;11.46;100.00;101233.41;5022802;28;20041;-69
2023/08/09 04:57:31;;;;;;;11.25;10.13;;;;;;;11.60;100.00;101242.53;5033492;28;20025;-69
2023/08/09 04:59:56;;;;;;;13.55;10.93;;;;;;;11.64;100.00;101239.63;5021566;28;20360;-69
2023/08/09 05:02:22;;;;;;;13.80;11.70;;;;;;;11.68;100.00;101232.34;5034996;28;20025;-70
2023/08/09 05:04:47;;;;;;;12.95;11.63;;;;;;;11.79;100.00;101245.13;5027678;28;20025;-70
2023/08/09 05:07:13;;;;;;;14.25;12.75;;;;;;;11.85;100.00;101243.06;5032651;28;20075;-71
2023/08/09 05:09:38;;;;;;;17.73;13.80;;;;;;;11.94;100.00;101245.28;5044135;28;20096;-71
2023/08/09 05:12:05;;;;;;;16.83;14.88;;;;;;;12.05;100.00;101251.91;5040422;28;20427;-69
2023/08/09 05:14:31;;;;;;;17.30;15.30;;;;;;;12.13;100.00;101257.72;5045784;28;20113;-68
2023/08/09 05:16:56;;;;;;;17.20;15.40;;;;;;;12.23;100.00;101263.44;5032186;28;20472;-69
2023/08/09 05:19:22;;;;;;;18.05;16.10;;;;;;;12.24;100.00;101254.47;5044702;28;20719;-68
2023/08/09 05:21:47;;;;;;;15.82;14.13;;;;;;;12.38;100.00;101260.84;5031526;28;20032;-69
2023/08/09 05:24:14;;;;;;;16.70;14.85;;;;;;;12.50;100.00;101256.69;5039670;28;20356;-69
2023/08/09 05:26:39;;;;;;;18.80;16.50;;;;;;;12.67;100.00;101256.66;5051906;28;20037;-69
2023/08/09 05:29:05;;;;;;;18.17;15.68;;;;;;;12.79;100.00;101259.59;5034650;28;20036;-70
2023/08/09 05:31:30;;;;;;;18.50;16.15;;;;;;;12.83;100.00;101253.13;5026067;28;20033;-69
2023/08/09 05:33:56;;;;;;;17.75;15.93;;;;;;;12.96;100.00;101263.09;5040630;28;20032;-69
2023/08/09 05:36:22;;;;;;;17.55;15.85;;;;;;;13.05;100.00;101275.09;5036556;28;20029;-69
2023/08/09 05:38:47;;;;;;;16.02;14.32;;;;;;;13.12;100.00;101267.59;5035353;28;20064;-69
2023/08/09 05:41:13;;;;;;;17.15;15.43;;;;;;;13.23;100.00;101275.06;5044722;28;20026;-70
2023/08/09 05:43:38;;;;;;;16.75;14.95;;;;;;;13.36;100.00;101278.78;5046244;28;20036;-70
2023/08/09 05:46:04;;;;;;;16.00;14.27;;;;;;;13.25;100.00;101278.50;5032470;28;20029;-70
2023/08/09 05:48:29;;;;;;;15.32;13.88;;;;;;;13.26;100.00;101266.88;5054768;28;20085;-70
2023/08/09 05:50:54;;;;;;;14.43;13.13;;;;;;;13.20;100.00;101266.22;5029634;28;20028;-70
2023/08/09 05:53:20;;;;;;;15.82;14.20;;;;;;;13.30;100.00;101277.31;5058120;28;20463;-70
2023/08/09 05:55:45;;;;;;;15.65;14.05;;;;;;;13.27;100.00;101280.16;5041641;28;20162;-70
2023/08/09 05:58:11;;;;;;;16.55;14.27;;;;;;;13.32;100.00;101283.44;5036812;28;20537;-71
2023/08/09 06:00:37;;;;;;;17.90;16.02;;;;;;;13.42;100.00;101289.16;5041260;28;20471;-70
2023/08/09 06:03:03;;;;;;;18.40;16.45;;;;;;;13.52;100.00;101297.53;5049322;28;21329;-70
2023/08/09 06:05:28;;;;;;;18.98;17.08;;;;;;;13.56;100.00;101283.88;5043212;28;20115;-70
2023/08/09 06:07:55;;;;;;;19.00;17.10;;;;;;;13.60;100.00;101293.47;5049083;28;20550;-71
2023/08/09 06:10:21;;;;;;;19.83;17.73;;;;;;;13.60;100.00;101296.13;5047998;28;20025;-71
2023/08/09 06:12:47;;;;;;;19.70;17.70;;;;;;;13.56;100.00;101299.06;5045021;28;20981;-71
2023/08/09 06:15:12;;;;;;;19.88;17.77;;;;;;;13.59;100.00;101304.25;5043056;28;20067;-71
2023/08/09 06:17:38;;;;;;;19.85;17.75;;;;;;;13.56;100.00;101304.41;5041463;28;20223;-70
2023/08/09 06:20:05;;;;;;;20.55;18.05;;;;;;;13.56;100.00;101315.13;5049165;28;20494;-70
2023/08/09 06:22:31;;;;;;;19.02;17.10;;;;;;;13.58;100.00;101319.41;5053958;28;20116;-71
2023/08/09 06:24:56;;;;;;;19.08;17.08;;;;;;;13.55;100.00;101314.25;5038521;28;20147;-69
2023/08/09 06:27:22;;;;;;;19.38;17.48;;;;;;;13.60;100.00;101335.41;5033636;28;20507;-69
2023/08/09 06:29:47;;;;;;;19.20;17.17;;;;;;;13.63;100.00;101333.41;5037062;28;20092;-69
2023/08/09 06:32:13;;;;;;;19.75;17.65;;;;;;;13.63;100.00;101329.88;5039085;28;20157;-69
2023/08/09 06:34:38;;;;;;;22.63;20.33;;;;;;;13.76;100.00;101336.28;5043268;28;20060;-69
2023/08/09 06:37:03;;;;;;;23.98;21.58;;;;;;;13.90;100.00;101330.13;5044053;28;20035;-69
2023/08/09 06:39:29;;;;;;;24.63;22.13;;;;;;;14.05;100.00;101342.66;5041718;28;20026;-70
2023/08/09 06:41:54;;;;;;;23.02;20.83;;;;;;;14.08;100.00;101336.22;5037035;28;20045;-70
2023/08/09 06:44:19;;;;;;;24.35;21.85;;;;;;;14.16;100.00;101340.19;5042994;28;20067;-70
2023/08/09 06:46:45;;;;;;;24.55;22.08;;;;;;;14.34;100.00;101340.09;5049518;28;20052;-70
2023/08/09 06:49:10;;;;;;;26.52;23.73;;;;;;;14.59;100.00;101336.81;5046165;28;20083;-70
2023/08/09 06:51:36;;;;;;;25.88;23.17;;;;;;;14.77;100.00;101343.78;5039831;28;20033;-71
2023/08/09 06:54:01;;;;;;;25.20;22.50;;;;;;;14.96;100.00;101338.16;5039672;28;20032;-70
2023/08/09 06:56:26;;;;;;;23.42;21.08;;;;;;;15.12;100.00;101338.06;5053600;28;20040;-69
2023/08/09 06:58:52;;;;;;;23.90;21.60;;;;;;;15.28;100.00;101348.72;5052346;28;20025;-69
2023/08/09 07:01:17;;;;;;;22.73;20.55;;;;;;;15.43;100.00;101348.63;5034494;28;20097;-69
2023/08/09 07:03:43;;;;;;;21.73;19.63;;;;;;;15.58;100.00;101340.53;5036200;28;20029;-69
2023/08/09 07:06:09;;;;;;;20.55;18.55;;;;;;;15.84;100.00;101355.88;5048532;28;20033;-70
2023/08/09 07:08:35;;;;;;;20.30;18.23;;;;;;;15.98;100.00;101360.34;5047199;28;20514;-70
2023/08/09 07:11:00;;;;;;;19.50;17.60;;;;;;;16.24;100.00;101363.13;5047289;28;20036;-70
2023/08/09 07:13:26;;;;;;;19.20;17.20;;;;;;;16.37;100.00;101366.72;5039467;28;20040;-70
2023/08/09 07:15:51;;;;;;;18.48;16.63;;;;;;;16.41;100.00;101358.34;5035767;28;20037;-72
2023/08/09 07:18:17;;;;;;;17.08;15.25;;;;;;;16.32;100.00;101371.53;5035761;28;20028;-69
2023/08/09 07:20:42;;;;;;;15.15;13.60;;;;;;;16.52;100.00;101364.84;5057366;28;20024;-70
2023/08/09 07:23:07;;;;;;;15.60;13.95;;;;;;;16.96;100.00;101364.50;5039381;28;20017;-70
2023/08/09 07:25:33;;;;;;;16.08;14.43;;;;;;;17.55;100.00;101363.94;5042301;28;20029;-71
2023/08/09 07:27:58;;;;;;;13.38;11.95;;;;;;;17.75;100.00;101368.78;5046761;28;20017;-70
2023/08/09 07:30:24;;;;;;;15.57;13.93;;;;;;;18.27;100.00;101372.16;5040660;28;20401;-71
2023/08/09 07:32:49;;;;;;;14.40;13.10;;;;;;;18.72;100.00;101373.22;5051753;28;20028;-70
2023/08/09 07:35:16;;;;;;;13.77;12.38;;;;;;;18.88;100.00;101379.16;5048026;28;20044;-71
2023/08/09 07:37:43;;;;;;;14.70;13.23;;;;;;;19.13;100.00;101375.41;5054248;28;20028;-70
2023/08/09 07:40:09;;;;;;;13.15;11.95;;;;;;;19.52;100.00;101375.06;5033189;28;20108;-71
2023/08/09 07:42:35;;;;;;;12.23;11.13;;;;;;;19.40;100.00;101377.78;5034015;28;20037;-72
2023/08/09 07:45:02;;;;;;;12.60;11.40;;;;;;;19.55;100.00;101385.63;5041890;28;20083;-71
2023/08/09 07:47:27;;;;;;;12.00;10.80;;;;;;;20.00;100.00;101386.47;5068599;28;20494;-72
2023/08/09 07:49:52;;;;;;;12.60;11.35;;;;;;;20.52;100.00;101382.16;5048598;28;20040;-70
2023/08/09 07:52:18;;;;;;;11.82;10.82;;;;;;;21.12;100.00;101394.16;5035431;28;20360;-72
2023/08/09 07:54:43;;;;;;;11.45;9.98;;;;;;;21.22;100.00;101396.06;5033263;28;20045;-70
2023/08/09 07:57:09;;;;;;;10.30;9.35;;;;;;;21.52;100.00;101395.25;5049339;28;20020;-71
2023/08/09 07:59:36;;;;;;;11.20;10.07;;;;;;;21.62;100.00;101399.72;5043607;28;20787;-72
2023/08/09 08:02:02;;;;;;;10.55;9.45;;;;;;;20.84;94.31;101405.63;5041311;28;20021;-71
2023/08/09 08:04:27;;;;;;;10.73;9.73;;;;;;;20.38;99.73;101410.31;5045984;28;20479;-73
2023/08/09 08:06:55;;;;;;;10.05;9.00;;;;;;;20.57;100.00;101408.84;5038825;28;20024;-72
2023/08/09 08:09:21;;;;;;;9.98;8.98;;;;;;;21.12;100.00;101418.53;5043079;28;20036;-71
2023/08/09 08:11:46;;;;;;;9.13;8.30;;;;;;;21.26;95.50;101411.91;5038745;28;20397;-72
2023/08/09 08:14:11;;;;;;;9.18;8.27;;;;;;;21.56;98.79;101415.66;5040282;28;20032;-73
2023/08/09 08:16:37;;;;;;;9.80;8.45;;;;;;;21.68;92.77;101414.56;5035832;28;20103;-72
2023/08/09 08:19:03;;;;;;;9.15;7.93;;;;;;;21.61;91.66;101422.41;5048756;28;20095;-71
2023/08/09 08:21:29;;;;;;;9.50;8.60;;;;;;;21.97;95.26;101421.94;5036243;28;20064;-71
2023/08/09 08:23:56;;;;;;;8.70;7.90;;;;;;;22.34;89.09;101422.22;5042748;28;20472;-71
2023/08/09 08:26:22;;;;;;;7.63;6.93;;;;;;;22.33;83.51;101429.50;5041119;28;20024;-72
2023/08/09 08:28:48;;;;;;;7.47;6.78;;;;;;;22.59;81.14;101432.53;5047006;28;20016;-73
2023/08/09 08:31:15;;;;;;;7.55;6.57;;;;;;;23.33;76.54;101437.34;5044803;28;20020;-72
2023/08/09 08:33:45;;;;;;;11.95;10.18;;;;;;;23.84;73.76;101437.94;5039807;28;20174;-74
2023/08/09 08:36:10;;;;;;;9.90;8.90;;;;;;;24.35;71.24;101431.91;5047085;28;20033;-73
2023/08/09 08:38:36;;;;;;;8.50;7.47;;;;;;;24.30;67.75;101442.41;5041632;28;20272;-72
2023/08/09 08:41:01;;;;;;;14.02;11.50;;;;;;;24.03;70.67;101447.84;5046624;28;20107;-72
2023/08/09 08:43:27;;;;;;;10.30;7.85;;;;;;;24.21;66.57;101431.59;5043824;28;20125;-72
2023/08/09 08:45:53;;;;;;;7.47;6.00;;;;;;;24.67;65.13;101440.59;5044099;28;20108;-72
2023/08/09 08:48:20;;;;;;;6.80;6.20;;;;;;;25.59;63.26;101435.56;5051547;28;20170;-72
2023/08/09 08:50:47;;;;;;;5.80;5.30;;;;;;;26.08;60.25;101446.75;5048631;28;20024;-72
2023/08/09 08:53:13;;;;;;;6.20;5.60;;;;;;;26.48;58.71;101449.78;5052642;28;20033;-71
2023/08/09 08:55:39;;;;;;;5.80;5.30;;;;;;;26.89;57.00;101460.75;5045189;28;20138;-72
2023/08/09 08:58:05;;;;;;;6.63;6.00;;;;;;;26.18;56.62;101462.13;5051211;28;20044;-73
2023/08/09 09:00:31;;;;;;;6.95;6.25;;;;;;;25.29;59.52;101466.00;5060339;28;20530;-72
2023/08/09 09:02:57;;;;;;;6.53;5.78;;;;;;;25.44;60.75;101456.22;5050282;28;20021;-73
2023/08/09 09:05:23;;;;;;;6.28;5.35;;;;;;;25.62;58.58;101472.53;5042274;28;20326;-73
2023/08/09 09:07:51;;;;;;;7.53;5.95;;;;;;;25.45;58.34;101470.72;5052688;28;20051;-73
2023/08/09 09:10:20;;;;;;;8.48;6.13;;;;;;;25.03;59.30;101480.41;5042379;28;20071;-73
2023/08/09 09:12:49;;;;;;;5.85;5.30;;;;;;;25.28;58.04;101476.03;5050691;28;20471;-73
2023/08/09 09:15:15;;;;;;;5.60;5.10;;;;;;;25.76;58.38;101474.66;5037229;28;20353;-73
2023/08/09 09:17:42;;;;;;;12.25;5.47;;;;;;;27.20;55.91;101472.72;5039641;28;20033;-73
2023/08/09 09:20:13;;;;;;;5.30;4.30;;;;;;;27.72;51.67;101471.47;5042486;28;20499;-72
2023/08/09 09:22:39;;;;;;;5.50;4.32;;;;;;;28.16;50.34;101477.31;5051895;28;20031;-73
2023/08/09 09:25:10;;;;;;;5.68;4.55;;;;;;;29.11;49.72;101466.16;5041107;28;20478;-74
2023/08/09 09:27:37;;;;;;;4.90;4.40;;;;;;;29.72;44.42;101479.78;5048911;28;20298;-73
2023/08/09 09:30:12;;;;;;;4.50;3.92;;;;;;;30.05;45.37;101479.41;5050492;28;20025;-73
2023/08/09 09:32:40;;;;;;;5.20;4.70;;;;;;;30.18;42.89;101483.25;5038689;28;20037;-73
2023/08/09 09:35:08;;;;;;;6.63;5.47;;;;;;;30.81;43.51;101475.34;5050218;28;20249;-74
2023/08/09 09:37:35;;;;;;;5.28;4.78;;;;;;;31.46;41.75;101501.72;5048302;28;20479;-73
2023/08/09 09:40:00;;;;;;;5.05;4.50;;;;;;;30.39;43.50;101501.66;5041629;28;20101;-73
2023/08/09 09:42:33;;;;;;;5.47;4.60;;;;;;;29.02;44.78;101500.16;5048019;28;20175;-75
2023/08/09 09:45:03;;;;;;;5.15;4.50;;;;;;;28.72;44.81;101493.66;5049532;28;20013;-74
2023/08/09 09:47:31;;;;;;;5.70;4.63;;;;;;;28.19;47.60;101498.00;5028579;28;20052;-74
2023/08/09 09:49:57;;;;;;;6.18;5.20;;;;;;;29.06;44.92;101498.75;5029970;28;20392;-73
2023/08/09 09:52:22;;;;;;;7.68;5.80;;;;;;;30.32;43.06;101495.22;5052962;28;20067;-74
2023/08/09 09:54:48;;;;;;;6.70;5.10;;;;;;;31.06;40.89;101489.53;5048635;28;20040;-75
2023/08/09 09:57:13;;;;;;;6.28;5.15;;;;;;;31.82;40.60;101495.22;5044681;28;20435;-74
2023/08/09 09:59:39;;;;;;;6.13;5.40;;;;;;;32.90;38.15;101482.56;5053306;28;20034;-74
2023/08/09 10:02:05;;;;;;;5.90;5.30;;;;;;;33.48;35.56;101481.97;5042447;28;20031;-75
2023/08/09 10:04:31;;;;;;;6.53;5.80;;;;;;;32.78;35.44;101492.50;5047426;28;20401;-74
2023/08/09 10:06:57;;;;;;;8.10;6.45;;;;;;;31.84;36.66;101495.88;5036114;28;20484;-74
2023/08/09 10:09:24;;;;;;;7.47;5.95;;;;;;;30.17;40.24;101498.00;5045750;28;20112;-74
2023/08/09 10:11:52;;;;;;;7.93;6.43;;;;;;;30.00;40.59;101489.06;5041343;28;20127;-74
2023/08/09 10:14:19;;;;;;;9.18;6.72;;;;;;;31.42;38.39;101485.81;5041492;28;20105;-74
2023/08/09 10:16:48;;;;;;;9.73;7.32;;;;;;;31.10;37.35;101488.09;5048785;28;20027;-74
2023/08/09 10:19:17;;;;;;;7.88;7.07;;;;;;;31.88;38.25;101485.31;5052670;28;20163;-74
2023/08/09 10:21:42;;;;;;;8.63;7.78;;;;;;;32.46;36.30;101481.16;5043260;28;20035;-74
2023/08/09 10:24:12;;;;;;;6.97;6.38;;;;;;;33.30;37.48;101479.00;5038980;28;20017;-74
2023/08/09 10:26:39;;;;;;;6.68;5.97;;;;;;;33.81;33.61;101483.81;5047832;28;20041;-74
2023/08/09 10:29:10;;;;;;;6.97;5.85;;;;;;;33.11;35.81;101484.31;5046818;28;20383;-74
2023/08/09 10:31:51;;;;;;;8.15;7.32;;;;;;;32.00;36.85;101491.97;5038200;28;20060;-73
2023/08/09 10:34:32;;;;;;;6.10;5.60;;;;;;;32.56;38.46;101499.22;5028288;28;20025;-73
2023/08/09 10:36:59;;;;;;;6.70;5.60;;;;;;;32.06;34.72;101498.53;5039439;28;20040;-73
2023/08/09 10:39:25;;;;;;;6.00;5.50;;;;;;;31.09;36.04;101502.84;5039581;28;20365;-73
2023/08/09 10:41:54;;;;;;;6.63;5.60;;;;;;;30.68;36.80;101505.34;5034971;28;20032;-74
2023/08/09 10:44:32;;;;;;;6.97;5.20;;;;;;;31.03;37.05;101503.66;5031521;28;20045;-73
2023/08/09 10:47:05;;;;;;;7.70;5.57;;;;;;;30.51;37.79;101502.84;5044742;28;20013;-73
2023/08/09 10:49:44;;;;;;;5.32;4.60;;;;;;;30.51;39.54;101508.34;5044820;28;20467;-74
2023/08/09 10:52:14;;;;;;;6.13;4.25;;;;;;;32.52;35.72;101506.19;5044882;28;20033;-73
2023/08/09 10:54:39;;;;;;;4.50;4.10;;;;;;;34.12;31.01;101508.00;5039027;28;20240;-74
2023/08/09 10:57:09;;;;;;;4.60;4.20;;;;;;;33.75;32.09;101512.31;5030538;28;20476;-75
2023/08/09 10:59:43;;;;;;;4.57;4.05;;;;;;;33.54;31.00;101507.88;5041292;28;20028;-74
2023/08/09 11:02:09;;;;;;;4.53;3.83;;;;;;;32.14;33.63;101509.38;5042098;28;20032;-74
2023/08/09 11:04:37;;;;;;;5.35;4.47;;;;;;;30.18;36.69;101509.81;5051318;28;20025;-73
2023/08/09 11:07:03;;;;;;;5.18;4.65;;;;;;;28.39;39.65;101514.91;5044439;28;20032;-73
2023/08/09 11:09:32;;;;;;;5.68;3.95;;;;;;;27.06;43.10;101511.66;5047087;28;20045;-73
2023/08/09 11:11:58;;;;;;;4.55;3.78;;;;;;;26.64;43.98;101511.75;5032594;28;20406;-73